Time;durP1;ratioP1;P1;durP2;ratioP2;P2;SDS_P1;SDS_P2;PMS_P1;PMS_P2;Temp;Humidity;BMP_temperature;BMP_pressure;BME280_temperature;BME280_humidity;BME280_pressure;Samples;Min_cycle;Max_cycle;Signal;HPM_P1;HPM_P2
2021/10/21 00:00:11;;;;;;;8.52;4.97;;;;;;;;;;4930885;29;20535;-55
2021/10/21 00:02:57;;;;;;;9.82;5.35;;;;;;;;;;4931281;29;20091;-54
2021/10/21 00:05:24;;;;;;;7.10;4.60;;;;;;;;;;4931944;29;20577;-54
2021/10/21 00:07:50;;;;;;;8.52;4.60;;;;;;;;;;4931419;29;20484;-55
2021/10/21 00:10:17;;;;;;;8.50;5.03;;;;;;;;;;4931294;29;20051;-58
2021/10/21 00:12:44;;;;;;;6.55;5.00;;;;;;;;;;4935932;29;20070;-56
2021/10/21 00:15:11;;;;;;;11.63;5.55;;;;;;;;;;4939888;28;20047;-54
2021/10/21 00:17:38;;;;;;;9.70;4.82;;;;;;;;;;4936932;28;20216;-54
2021/10/21 00:20:06;;;;;;;9.18;4.18;;;;;;;;;;4991560;28;20182;-55
2021/10/21 00:22:32;;;;;;;8.15;5.25;;;;;;;;;;5041884;28;20456;-54
2021/10/21 00:24:59;;;;;;;14.48;5.28;;;;;;;;;;5074651;28;20056;-55
2021/10/21 00:27:25;;;;;;;11.25;6.00;;;;;;;;;;5093339;28;20052;-55
2021/10/21 00:29:51;;;;;;;10.52;6.68;;;;;;;;;;5091980;28;20076;-55
2021/10/21 00:32:17;;;;;;;9.68;5.22;;;;;;;;;;5093553;28;20040;-55
2021/10/21 00:34:44;;;;;;;14.02;5.43;;;;;;;;;;5090676;28;20068;-56
2021/10/21 00:37:10;;;;;;;7.88;5.25;;;;;;;;;;5093028;28;20048;-54
2021/10/21 00:39:36;;;;;;;9.73;4.22;;;;;;;;;;5093364;28;20415;-55
2021/10/21 00:42:03;;;;;;;8.07;5.20;;;;;;;;;;5093436;28;20131;-55
2021/10/21 00:44:29;;;;;;;11.82;4.15;;;;;;;;;;5088159;28;20048;-55
2021/10/21 00:46:57;;;;;;;11.45;5.47;;;;;;;;;;5093680;28;20046;-56
2021/10/21 00:49:24;;;;;;;8.27;4.95;;;;;;;;;;5092676;28;20091;-56
2021/10/21 00:51:50;;;;;;;7.82;5.05;;;;;;;;;;5091577;28;20044;-56
2021/10/21 00:54:18;;;;;;;10.05;5.80;;;;;;;;;;5093139;28;20055;-56
2021/10/21 00:56:45;;;;;;;11.10;5.45;;;;;;;;;;5091614;28;20045;-56
2021/10/21 00:59:13;;;;;;;11.43;6.22;;;;;;;;;;5092843;28;20056;-56
2021/10/21 01:01:39;;;;;;;10.35;5.82;;;;;;;;;;5094779;28;20135;-56
2021/10/21 01:04:06;;;;;;;11.00;5.47;;;;;;;;;;5092735;28;20059;-56
2021/10/21 01:06:33;;;;;;;9.40;5.85;;;;;;;;;;5093089;28;20468;-56
2021/10/21 01:09:01;;;;;;;9.82;5.85;;;;;;;;;;5092599;28;20043;-56
2021/10/21 01:11:28;;;;;;;11.98;6.20;;;;;;;;;;5092309;28;20066;-56
2021/10/21 01:13:54;;;;;;;14.75;5.55;;;;;;;;;;5083462;28;20128;-56
2021/10/21 01:16:21;;;;;;;10.98;6.13;;;;;;;;;;5081830;28;20045;-55
2021/10/21 01:18:47;;;;;;;10.25;5.85;;;;;;;;;;5087167;28;20131;-55
2021/10/21 01:21:14;;;;;;;9.02;4.50;;;;;;;;;;5092357;28;20047;-55
2021/10/21 01:23:41;;;;;;;13.38;5.57;;;;;;;;;;5090042;28;20044;-56
2021/10/21 01:26:12;;;;;;;6.43;4.32;;;;;;;;;;5086386;28;20080;-56
2021/10/21 01:28:39;;;;;;;13.00;6.30;;;;;;;;;;5093306;28;20074;-56
2021/10/21 01:31:07;;;;;;;10.43;5.47;;;;;;;;;;5092427;28;20064;-57
2021/10/21 01:33:34;;;;;;;8.45;5.38;;;;;;;;;;5090292;28;20063;-56
2021/10/21 01:36:00;;;;;;;6.97;3.65;;;;;;;;;;5091338;28;20549;-56
2021/10/21 01:38:27;;;;;;;10.38;5.78;;;;;;;;;;5091275;28;20040;-56
2021/10/21 01:40:53;;;;;;;10.13;5.10;;;;;;;;;;5093938;28;20071;-56
2021/10/21 01:43:19;;;;;;;8.23;4.53;;;;;;;;;;5092938;28;20453;-56
2021/10/21 01:45:46;;;;;;;7.18;4.35;;;;;;;;;;5092265;28;20093;-56
2021/10/21 01:48:12;;;;;;;14.25;6.50;;;;;;;;;;5092252;28;20101;-56
2021/10/21 01:50:39;;;;;;;9.18;4.55;;;;;;;;;;5092533;28;20129;-56
2021/10/21 01:53:05;;;;;;;10.50;6.03;;;;;;;;;;5092295;28;20051;-56
2021/10/21 01:55:31;;;;;;;11.68;5.80;;;;;;;;;;5093911;28;20059;-56
2021/10/21 01:57:58;;;;;;;9.23;5.03;;;;;;;;;;5092077;28;20048;-56
2021/10/21 02:00:25;;;;;;;11.95;6.55;;;;;;;;;;5092042;28;20040;-56
2021/10/21 02:02:52;;;;;;;10.15;4.97;;;;;;;;;;5092157;28;20055;-54
2021/10/21 02:05:19;;;;;;;8.10;5.47;;;;;;;;;;5092267;28;20127;-55
2021/10/21 02:07:46;;;;;;;9.80;5.50;;;;;;;;;;5090006;28;20097;-55
2021/10/21 02:10:14;;;;;;;17.42;6.40;;;;;;;;;;5092030;28;20074;-55
2021/10/21 02:12:40;;;;;;;10.77;6.80;;;;;;;;;;5087387;28;20039;-56
2021/10/21 02:15:07;;;;;;;8.80;5.82;;;;;;;;;;5087232;28;20120;-55
2021/10/21 02:17:33;;;;;;;8.68;5.97;;;;;;;;;;5090499;28;20121;-56
2021/10/21 02:20:00;;;;;;;10.52;6.45;;;;;;;;;;5086065;28;20430;-56
2021/10/21 02:22:26;;;;;;;12.38;6.30;;;;;;;;;;5082111;28;20051;-56
2021/10/21 02:24:53;;;;;;;7.03;4.10;;;;;;;;;;5087339;28;20538;-56
2021/10/21 02:27:19;;;;;;;7.45;4.75;;;;;;;;;;5091241;28;20051;-56
2021/10/21 02:29:45;;;;;;;13.45;6.25;;;;;;;;;;5091873;28;20044;-56
2021/10/21 02:32:11;;;;;;;12.55;6.22;;;;;;;;;;5091556;28;20079;-56
2021/10/21 02:34:38;;;;;;;14.55;6.65;;;;;;;;;;5093761;28;20048;-56
2021/10/21 02:37:04;;;;;;;8.15;5.22;;;;;;;;;;5088315;28;20044;-56
2021/10/21 02:39:30;;;;;;;12.07;6.30;;;;;;;;;;5090465;28;20067;-56
2021/10/21 02:41:56;;;;;;;5.82;4.10;;;;;;;;;;5091069;28;20043;-56
2021/10/21 02:44:23;;;;;;;13.90;6.22;;;;;;;;;;5091229;28;20036;-56
2021/10/21 02:46:49;;;;;;;11.63;5.72;;;;;;;;;;5093043;28;20087;-56
2021/10/21 02:49:16;;;;;;;11.35;6.68;;;;;;;;;;5091910;28;20452;-56
2021/10/21 02:51:42;;;;;;;18.45;6.40;;;;;;;;;;5089893;28;20035;-56
2021/10/21 02:54:08;;;;;;;9.50;6.43;;;;;;;;;;5091026;28;20458;-56
2021/10/21 02:56:35;;;;;;;11.85;5.57;;;;;;;;;;5089415;28;20047;-56
2021/10/21 02:59:01;;;;;;;11.63;5.15;;;;;;;;;;5091563;28;20442;-56
2021/10/21 03:01:27;;;;;;;10.70;6.40;;;;;;;;;;5093094;28;20500;-56
2021/10/21 03:03:53;;;;;;;13.50;6.88;;;;;;;;;;5090987;28;20158;-56
2021/10/21 03:06:20;;;;;;;14.05;7.47;;;;;;;;;;5091055;28;20051;-56
2021/10/21 03:08:46;;;;;;;10.25;6.53;;;;;;;;;;5090959;28;20074;-56
2021/10/21 03:11:12;;;;;;;12.35;6.70;;;;;;;;;;5090717;28;20426;-56
2021/10/21 03:13:39;;;;;;;12.50;7.00;;;;;;;;;;5093022;28;20157;-56
2021/10/21 03:16:05;;;;;;;6.82;4.95;;;;;;;;;;5089717;28;20048;-55
2021/10/21 03:18:31;;;;;;;11.90;6.10;;;;;;;;;;5089815;28;20047;-56
2021/10/21 03:20:58;;;;;;;12.10;6.35;;;;;;;;;;5090528;28;20116;-56
2021/10/21 03:23:26;;;;;;;12.18;5.75;;;;;;;;;;5090293;28;20078;-56
2021/10/21 03:25:52;;;;;;;13.10;7.07;;;;;;;;;;5091382;28;20047;-56
2021/10/21 03:28:19;;;;;;;9.40;5.50;;;;;;;;;;5090860;28;20052;-56
2021/10/21 03:30:45;;;;;;;16.00;6.82;;;;;;;;;;5088968;28;20051;-56
2021/10/21 03:33:12;;;;;;;12.70;6.15;;;;;;;;;;5090377;28;20068;-56
2021/10/21 03:35:38;;;;;;;14.45;6.65;;;;;;;;;;5088716;28;20040;-57
2021/10/21 03:38:05;;;;;;;14.02;6.47;;;;;;;;;;5088164;28;20072;-56
2021/10/21 03:40:31;;;;;;;11.75;6.38;;;;;;;;;;5089359;28;20052;-56
2021/10/21 03:42:58;;;;;;;12.15;5.30;;;;;;;;;;5089075;28;20050;-55
2021/10/21 03:45:24;;;;;;;9.15;4.35;;;;;;;;;;5090433;28;20452;-56
2021/10/21 03:47:50;;;;;;;10.20;5.65;;;;;;;;;;5090376;28;20052;-56
2021/10/21 03:50:17;;;;;;;12.80;6.85;;;;;;;;;;5088318;28;20049;-56
2021/10/21 03:52:43;;;;;;;8.93;4.75;;;;;;;;;;5096535;28;20080;-56
2021/10/21 03:55:10;;;;;;;13.90;5.55;;;;;;;;;;5094006;28;20454;-56
2021/10/21 03:57:37;;;;;;;13.52;6.95;;;;;;;;;;5094402;28;20070;-56
2021/10/21 04:00:08;;;;;;;12.10;6.32;;;;;;;;;;5094237;28;20056;-56
2021/10/21 04:02:38;;;;;;;7.60;5.45;;;;;;;;;;5091216;28;20046;-57
2021/10/21 04:05:05;;;;;;;9.23;5.10;;;;;;;;;;5080946;28;20064;-56
2021/10/21 04:07:32;;;;;;;11.10;6.15;;;;;;;;;;5096317;28;20484;-57
2021/10/21 04:09:58;;;;;;;11.07;6.60;;;;;;;;;;5092990;28;20043;-56
2021/10/21 04:12:24;;;;;;;8.85;5.63;;;;;;;;;;5094092;28;20105;-56
2021/10/21 04:14:51;;;;;;;9.02;5.80;;;;;;;;;;5093035;28;20044;-58
2021/10/21 04:17:19;;;;;;;12.70;5.85;;;;;;;;;;5080255;28;20098;-58
2021/10/21 04:19:46;;;;;;;12.05;6.57;;;;;;;;;;5091917;28;20587;-57
2021/10/21 04:22:13;;;;;;;8.45;5.05;;;;;;;;;;5092841;28;20483;-57
2021/10/21 04:24:39;;;;;;;10.13;5.95;;;;;;;;;;5086823;28;20071;-58
2021/10/21 04:27:05;;;;;;;10.70;6.15;;;;;;;;;;5089572;28;20068;-57
2021/10/21 04:29:32;;;;;;;9.23;5.82;;;;;;;;;;5082942;28;20048;-56
2021/10/21 04:31:58;;;;;;;9.32;5.47;;;;;;;;;;5084542;28;20123;-56
2021/10/21 04:34:24;;;;;;;8.52;6.43;;;;;;;;;;5087330;28;20052;-56
2021/10/21 04:36:51;;;;;;;12.40;5.55;;;;;;;;;;5085696;28;20055;-56
2021/10/21 04:39:17;;;;;;;9.55;5.82;;;;;;;;;;5088208;28;20040;-55
2021/10/21 04:41:44;;;;;;;15.73;7.05;;;;;;;;;;5091564;28;20040;-56
2021/10/21 04:44:10;;;;;;;11.18;5.13;;;;;;;;;;5087121;28;20102;-55
2021/10/21 04:46:36;;;;;;;10.57;6.72;;;;;;;;;;5088318;28;20411;-57
2021/10/21 04:49:03;;;;;;;10.82;6.22;;;;;;;;;;5085835;28;20130;-56
2021/10/21 04:51:29;;;;;;;10.32;5.60;;;;;;;;;;5086922;28;20048;-56
2021/10/21 04:53:55;;;;;;;14.88;5.78;;;;;;;;;;5090285;28;20502;-56
2021/10/21 04:56:22;;;;;;;13.02;4.97;;;;;;;;;;5087693;28;20056;-55
2021/10/21 04:58:48;;;;;;;10.18;6.50;;;;;;;;;;5090743;28;20406;-56
2021/10/21 05:01:14;;;;;;;9.52;6.18;;;;;;;;;;5083079;28;20059;-55
2021/10/21 05:03:40;;;;;;;11.68;5.80;;;;;;;;;;5084512;28;20095;-55
2021/10/21 05:06:07;;;;;;;13.88;6.60;;;;;;;;;;5087642;28;20721;-56
2021/10/21 05:08:33;;;;;;;8.82;4.03;;;;;;;;;;5090823;28;20089;-55
2021/10/21 05:10:59;;;;;;;12.27;6.65;;;;;;;;;;5087305;28;20075;-56
2021/10/21 05:13:25;;;;;;;13.70;6.32;;;;;;;;;;5088209;28;20040;-57
2021/10/21 05:15:52;;;;;;;14.65;6.40;;;;;;;;;;5086313;28;20044;-56
2021/10/21 05:18:18;;;;;;;13.52;6.10;;;;;;;;;;5085268;28;20079;-55
2021/10/21 05:20:44;;;;;;;9.60;5.38;;;;;;;;;;5077206;28;20484;-56
2021/10/21 05:23:11;;;;;;;10.10;6.18;;;;;;;;;;5075666;28;20074;-56
2021/10/21 05:25:37;;;;;;;10.88;5.50;;;;;;;;;;5088892;28;20124;-56
2021/10/21 05:28:03;;;;;;;13.57;6.10;;;;;;;;;;5080745;28;20171;-56
2021/10/21 05:30:30;;;;;;;9.15;5.43;;;;;;;;;;5079765;28;20420;-56
2021/10/21 05:32:57;;;;;;;13.13;6.40;;;;;;;;;;5077015;28;20075;-56
2021/10/21 05:35:23;;;;;;;9.15;5.55;;;;;;;;;;5090158;28;20041;-56
2021/10/21 05:37:49;;;;;;;12.27;6.70;;;;;;;;;;5087897;28;20051;-56
2021/10/21 05:40:16;;;;;;;10.77;6.22;;;;;;;;;;5086056;28;20054;-56
2021/10/21 05:42:42;;;;;;;10.05;5.20;;;;;;;;;;5090165;28;20572;-56
2021/10/21 05:45:08;;;;;;;10.20;6.30;;;;;;;;;;5089920;28;20098;-56
2021/10/21 05:47:38;;;;;;;9.88;5.82;;;;;;;;;;5090237;28;20040;-56
2021/10/21 05:50:04;;;;;;;10.48;6.03;;;;;;;;;;5090157;28;20096;-56
2021/10/21 05:52:30;;;;;;;11.27;6.18;;;;;;;;;;5093758;28;20052;-56
2021/10/21 05:54:57;;;;;;;8.35;6.13;;;;;;;;;;5091538;28;20118;-56
2021/10/21 05:57:23;;;;;;;10.38;5.57;;;;;;;;;;5091829;28;20036;-56
2021/10/21 05:59:49;;;;;;;10.00;5.22;;;;;;;;;;5091773;28;20127;-56
2021/10/21 06:02:16;;;;;;;11.50;6.22;;;;;;;;;;5091688;28;20079;-56
2021/10/21 06:04:42;;;;;;;17.85;6.82;;;;;;;;;;5093576;28;20118;-56
2021/10/21 06:07:08;;;;;;;12.40;6.50;;;;;;;;;;5079315;28;20083;-55
2021/10/21 06:09:35;;;;;;;7.22;4.82;;;;;;;;;;5080740;28;20072;-56
2021/10/21 06:12:01;;;;;;;13.88;6.50;;;;;;;;;;5083347;28;20101;-57
2021/10/21 06:14:31;;;;;;;12.07;6.18;;;;;;;;;;5087582;28;20491;-55
2021/10/21 06:16:58;;;;;;;9.82;6.25;;;;;;;;;;5090775;28;20119;-56
2021/10/21 06:19:24;;;;;;;11.80;6.25;;;;;;;;;;5087124;28;20143;-56
2021/10/21 06:21:57;;;;;;;9.40;6.65;;;;;;;;;;5086202;28;20047;-55
2021/10/21 06:24:27;;;;;;;11.27;6.75;;;;;;;;;;5082896;28;20452;-55
2021/10/21 06:26:54;;;;;;;11.25;5.38;;;;;;;;;;5084279;28;20037;-55
2021/10/21 06:29:20;;;;;;;12.30;7.07;;;;;;;;;;5088907;28;20040;-56
2021/10/21 06:31:49;;;;;;;16.67;5.85;;;;;;;;;;5088319;28;20491;-55
2021/10/21 06:34:15;;;;;;;19.52;4.68;;;;;;;;;;5078018;28;20048;-55
2021/10/21 06:36:41;;;;;;;11.05;5.82;;;;;;;;;;5083486;28;20455;-55
2021/10/21 06:39:09;;;;;;;13.60;6.22;;;;;;;;;;5087495;28;20545;-56
2021/10/21 06:41:36;;;;;;;11.98;6.30;;;;;;;;;;5083111;28;20093;-55
2021/10/21 06:44:02;;;;;;;10.75;6.50;;;;;;;;;;5089365;28;20044;-55
2021/10/21 06:46:28;;;;;;;8.30;5.20;;;;;;;;;;5085394;28;20075;-55
2021/10/21 06:48:55;;;;;;;8.70;5.60;;;;;;;;;;5077589;28;20087;-54
2021/10/21 06:51:21;;;;;;;10.98;6.38;;;;;;;;;;5085738;28;20086;-53
2021/10/21 06:53:48;;;;;;;12.70;6.20;;;;;;;;;;5086916;28;20048;-55
2021/10/21 06:56:14;;;;;;;13.13;6.57;;;;;;;;;;5085494;28;20530;-53
2021/10/21 06:58:40;;;;;;;9.90;5.65;;;;;;;;;;5085631;28;20407;-54
2021/10/21 07:01:07;;;;;;;7.90;5.20;;;;;;;;;;5086232;28;20049;-55
2021/10/21 07:03:33;;;;;;;10.25;5.82;;;;;;;;;;5085068;28;20047;-56
2021/10/21 07:06:00;;;;;;;9.90;5.65;;;;;;;;;;5082241;28;20048;-55
2021/10/21 07:08:28;;;;;;;8.15;6.20;;;;;;;;;;5085069;28;20064;-54
2021/10/21 07:10:56;;;;;;;9.90;6.32;;;;;;;;;;5087432;28;20079;-55
2021/10/21 07:13:24;;;;;;;18.35;6.43;;;;;;;;;;5086679;28;20043;-56
2021/10/21 07:15:50;;;;;;;13.90;6.53;;;;;;;;;;5085060;28;20075;-56
2021/10/21 07:18:17;;;;;;;12.88;7.45;;;;;;;;;;5085468;28;20040;-55
2021/10/21 07:20:43;;;;;;;6.88;4.88;;;;;;;;;;5086448;28;20040;-56
2021/10/21 07:23:09;;;;;;;12.65;7.13;;;;;;;;;;5087895;28;20488;-56
2021/10/21 07:25:35;;;;;;;11.70;6.88;;;;;;;;;;5085543;28;20568;-55
2021/10/21 07:28:02;;;;;;;18.92;7.60;;;;;;;;;;5086958;28;20040;-55
2021/10/21 07:30:30;;;;;;;8.43;4.75;;;;;;;;;;5087748;28;20503;-56
2021/10/21 07:32:58;;;;;;;10.48;7.60;;;;;;;;;;5088136;28;20568;-54
2021/10/21 07:35:25;;;;;;;11.23;6.25;;;;;;;;;;5085237;28;20032;-55
2021/10/21 07:37:51;;;;;;;13.07;6.43;;;;;;;;;;5085697;28;20040;-55
2021/10/21 07:40:17;;;;;;;10.10;6.13;;;;;;;;;;5086196;28;20041;-56
2021/10/21 07:42:44;;;;;;;14.10;6.28;;;;;;;;;;5089528;28;20043;-55
2021/10/21 07:45:11;;;;;;;13.98;7.95;;;;;;;;;;5085506;28;20554;-56
2021/10/21 07:47:38;;;;;;;10.80;6.93;;;;;;;;;;5086673;28;20516;-56
2021/10/21 07:50:05;;;;;;;12.35;7.47;;;;;;;;;;5083478;28;20567;-56
2021/10/21 07:52:32;;;;;;;14.25;6.65;;;;;;;;;;5089029;28;20068;-55
2021/10/21 07:54:58;;;;;;;9.63;5.75;;;;;;;;;;5088408;28;20123;-55
2021/10/21 07:57:26;;;;;;;14.27;7.07;;;;;;;;;;5083539;28;20169;-55
2021/10/21 07:59:53;;;;;;;9.63;6.40;;;;;;;;;;5089192;28;20067;-55
2021/10/21 08:02:19;;;;;;;11.48;7.38;;;;;;;;;;5085354;28;20170;-55
2021/10/21 08:04:46;;;;;;;12.15;7.65;;;;;;;;;;5085499;28;20040;-55
2021/10/21 08:07:12;;;;;;;11.48;7.93;;;;;;;;;;5088207;28;20095;-56
2021/10/21 08:09:39;;;;;;;13.18;7.72;;;;;;;;;;5086013;28;20048;-56
2021/10/21 08:12:07;;;;;;;12.73;7.10;;;;;;;;;;5084748;28;20503;-56
2021/10/21 08:14:34;;;;;;;14.50;8.15;;;;;;;;;;5087644;28;20067;-56
2021/10/21 08:17:00;;;;;;;13.48;7.32;;;;;;;;;;5084436;28;20043;-57
2021/10/21 08:19:27;;;;;;;15.57;9.25;;;;;;;;;;5085459;28;20048;-57
2021/10/21 08:21:53;;;;;;;11.13;7.15;;;;;;;;;;5085644;28;20064;-58
2021/10/21 08:24:21;;;;;;;12.90;7.82;;;;;;;;;;5084234;28;20491;-58
2021/10/21 08:26:48;;;;;;;13.65;8.07;;;;;;;;;;5085777;28;20573;-59
2021/10/21 08:29:17;;;;;;;17.08;8.30;;;;;;;;;;5088841;28;20142;-58
2021/10/21 08:31:43;;;;;;;12.45;7.47;;;;;;;;;;5087467;28;20076;-58
2021/10/21 08:34:10;;;;;;;14.85;7.65;;;;;;;;;;5084724;28;20130;-58
2021/10/21 08:36:36;;;;;;;16.30;9.50;;;;;;;;;;5086493;28;20064;-58
2021/10/21 08:39:05;;;;;;;15.57;9.90;;;;;;;;;;5090603;28;20039;-59
2021/10/21 08:41:31;;;;;;;17.23;9.27;;;;;;;;;;5077154;28;20044;-58
2021/10/21 08:43:58;;;;;;;21.65;10.60;;;;;;;;;;5089473;28;20094;-59
2021/10/21 08:46:25;;;;;;;14.18;8.57;;;;;;;;;;5079772;28;20446;-59
2021/10/21 08:48:57;;;;;;;12.38;7.18;;;;;;;;;;5083438;28;20093;-60
2021/10/21 08:51:24;;;;;;;20.77;9.48;;;;;;;;;;5088416;28;20072;-61
2021/10/21 08:53:50;;;;;;;21.00;10.60;;;;;;;;;;5089056;28;20048;-61
2021/10/21 08:56:20;;;;;;;18.05;8.68;;;;;;;;;;5092906;28;20127;-59
2021/10/21 08:58:47;;;;;;;21.73;10.73;;;;;;;;;;5090585;28;20515;-60
2021/10/21 09:01:19;;;;;;;20.10;11.65;;;;;;;;;;5088488;28;20044;-59
2021/10/21 09:06:31;;;;;;;17.98;11.15;;;;;;;;;;5088601;28;20529;-59
2021/10/21 09:08:58;;;;;;;21.02;11.57;;;;;;;;;;5091784;28;20546;-58
2021/10/21 09:11:25;;;;;;;20.33;12.52;;;;;;;;;;5078298;28;20072;-59
2021/10/21 09:14:11;;;;;;;18.55;9.77;;;;;;;;;;5076936;28;20075;-59
2021/10/21 09:16:39;;;;;;;18.65;10.90;;;;;;;;;;5078924;28;20072;-59
2021/10/21 09:19:06;;;;;;;22.55;11.60;;;;;;;;;;5079048;28;20118;-59
2021/10/21 09:21:33;;;;;;;17.33;10.95;;;;;;;;;;5081180;28;20048;-58
2021/10/21 09:24:18;;;;;;;12.82;8.75;;;;;;;;;;5090194;28;20197;-58
2021/10/21 09:27:14;;;;;;;19.23;11.15;;;;;;;;;;5109317;27;20040;-57
2021/10/21 09:29:41;;;;;;;17.90;9.68;;;;;;;;;;5068075;28;20507;-57
2021/10/21 09:32:09;;;;;;;23.25;11.70;;;;;;;;;;5089888;28;20074;-57
2021/10/21 09:34:42;;;;;;;20.77;11.63;;;;;;;;;;5089931;28;20048;-57
2021/10/21 09:37:16;;;;;;;16.55;10.73;;;;;;;;;;5087419;28;20086;-56
2021/10/21 09:39:44;;;;;;;21.07;10.47;;;;;;;;;;5087654;28;20385;-57
2021/10/21 09:42:11;;;;;;;12.15;5.93;;;;;;;;;;5088121;28;20044;-56
2021/10/21 09:44:37;;;;;;;16.48;10.02;;;;;;;;;;5076112;28;20036;-56
2021/10/21 09:47:14;;;;;;;16.65;10.35;;;;;;;;;;5088694;28;20075;-57
2021/10/21 09:49:44;;;;;;;22.75;11.80;;;;;;;;;;5097652;28;20072;-56
2021/10/21 09:52:18;;;;;;;17.90;9.20;;;;;;;;;;5091567;28;20062;-57
2021/10/21 09:54:46;;;;;;;15.63;9.15;;;;;;;;;;5091420;28;20047;-57
2021/10/21 09:57:18;;;;;;;19.75;12.27;;;;;;;;;;5089973;28;20388;-56
2021/10/21 10:00:05;;;;;;;20.05;10.90;;;;;;;;;;5091950;28;20407;-57
2021/10/21 10:02:39;;;;;;;19.88;10.45;;;;;;;;;;5078227;28;20391;-57
2021/10/21 10:05:07;;;;;;;17.42;9.15;;;;;;;;;;5091773;28;20075;-57
2021/10/21 10:07:35;;;;;;;17.23;9.98;;;;;;;;;;5093621;28;20051;-56
2021/10/21 10:10:03;;;;;;;18.60;10.07;;;;;;;;;;5091584;28;20068;-57
2021/10/21 10:12:30;;;;;;;11.50;8.80;;;;;;;;;;5091620;28;20083;-56
2021/10/21 10:14:57;;;;;;;16.58;9.57;;;;;;;;;;5091575;28;20379;-56
2021/10/21 10:17:24;;;;;;;24.02;11.38;;;;;;;;;;5091227;28;20510;-55
2021/10/21 10:19:51;;;;;;;15.27;8.98;;;;;;;;;;5093331;28;20500;-55
2021/10/21 10:22:24;;;;;;;16.40;10.20;;;;;;;;;;5091844;28;20518;-56
2021/10/21 10:24:51;;;;;;;14.95;9.23;;;;;;;;;;5090821;28;20074;-56
2021/10/21 10:27:22;;;;;;;21.70;10.77;;;;;;;;;;5091065;28;20089;-57
2021/10/21 10:29:48;;;;;;;15.43;9.43;;;;;;;;;;5091606;28;20064;-56
2021/10/21 10:32:34;;;;;;;17.08;9.88;;;;;;;;;;5090227;28;20036;-57
2021/10/21 10:35:01;;;;;;;17.50;9.43;;;;;;;;;;5089636;28;20507;-56
2021/10/21 10:37:27;;;;;;;14.82;8.38;;;;;;;;;;5104146;28;20067;-57
2021/10/21 10:39:57;;;;;;;14.63;9.40;;;;;;;;;;5093034;28;20036;-56
2021/10/21 10:42:30;;;;;;;12.18;8.38;;;;;;;;;;5093689;28;20221;-54
2021/10/21 10:44:59;;;;;;;14.85;8.73;;;;;;;;;;5090519;28;20131;-56
2021/10/21 10:47:42;;;;;;;14.25;8.15;;;;;;;;;;5090965;28;20403;-56
2021/10/21 10:50:25;;;;;;;11.13;7.22;;;;;;;;;;5090883;28;20131;-60
2021/10/21 10:52:58;;;;;;;15.48;7.93;;;;;;;;;;5089063;28;20044;-56
2021/10/21 10:55:26;;;;;;;11.65;6.80;;;;;;;;;;5091533;28;20083;-57
2021/10/21 10:57:59;;;;;;;16.02;9.27;;;;;;;;;;5089158;28;20048;-56
2021/10/21 11:00:40;;;;;;;9.73;6.60;;;;;;;;;;5090261;28;20165;-57
2021/10/21 11:03:07;;;;;;;14.38;8.48;;;;;;;;;;5090814;28;20043;-56
2021/10/21 11:05:43;;;;;;;14.48;9.13;;;;;;;;;;5090833;28;20070;-56
2021/10/21 11:08:10;;;;;;;12.77;7.88;;;;;;;;;;5090375;28;20043;-56
2021/10/21 11:10:37;;;;;;;15.15;7.57;;;;;;;;;;5092573;28;20091;-56
2021/10/21 11:13:17;;;;;;;13.68;7.55;;;;;;;;;;5090664;28;20453;-57
2021/10/21 11:15:44;;;;;;;11.52;7.28;;;;;;;;;;5089537;28;20119;-57
2021/10/21 11:18:21;;;;;;;13.48;8.38;;;;;;;;;;5090142;28;20052;-57
2021/10/21 11:20:47;;;;;;;11.60;7.90;;;;;;;;;;5090933;28;20040;-57
2021/10/21 11:23:25;;;;;;;13.02;8.23;;;;;;;;;;5089655;28;20059;-57
2021/10/21 11:26:00;;;;;;;11.30;5.97;;;;;;;;;;5087498;28;20157;-57
2021/10/21 11:28:26;;;;;;;10.13;5.68;;;;;;;;;;5091600;28;20511;-57
2021/10/21 11:30:53;;;;;;;15.70;9.05;;;;;;;;;;5088479;28;20064;-57
2021/10/21 11:33:19;;;;;;;10.65;6.70;;;;;;;;;;5090670;28;20094;-57
2021/10/21 11:35:46;;;;;;;12.25;7.72;;;;;;;;;;5090795;28;20093;-56
2021/10/21 11:38:13;;;;;;;14.35;8.13;;;;;;;;;;5089913;28;20072;-56
2021/10/21 11:40:39;;;;;;;12.35;6.32;;;;;;;;;;5092424;28;20056;-55
2021/10/21 11:43:07;;;;;;;9.93;6.00;;;;;;;;;;5090404;28;20557;-56
2021/10/21 11:45:38;;;;;;;15.50;7.22;;;;;;;;;;5090416;28;20082;-56
2021/10/21 11:48:05;;;;;;;10.88;6.82;;;;;;;;;;5086972;28;20051;-55
2021/10/21 11:50:50;;;;;;;10.52;5.97;;;;;;;;;;5090016;28;20479;-56
2021/10/21 11:53:18;;;;;;;14.02;6.70;;;;;;;;;;5090008;28;20067;-56
2021/10/21 11:55:45;;;;;;;9.95;5.43;;;;;;;;;;5091723;28;20044;-56
2021/10/21 11:58:13;;;;;;;7.63;5.30;;;;;;;;;;5089292;28;20410;-56
2021/10/21 12:00:40;;;;;;;8.50;5.55;;;;;;;;;;5086985;28;20627;-56
2021/10/21 12:03:06;;;;;;;12.20;7.95;;;;;;;;;;5089736;28;20048;-56
2021/10/21 12:05:33;;;;;;;11.45;6.20;;;;;;;;;;5089012;28;20040;-56
2021/10/21 12:08:01;;;;;;;16.67;6.53;;;;;;;;;;5089073;28;20083;-56
2021/10/21 12:10:29;;;;;;;13.57;7.10;;;;;;;;;;5091823;28;20521;-57
2021/10/21 12:12:55;;;;;;;11.57;5.78;;;;;;;;;;5093864;28;20510;-60
2021/10/21 12:15:27;;;;;;;9.18;5.20;;;;;;;;;;5094186;28;20087;-56
2021/10/21 12:17:54;;;;;;;10.10;6.30;;;;;;;;;;5093864;28;20502;-56
2021/10/21 12:20:30;;;;;;;10.75;5.50;;;;;;;;;;5077747;28;20052;-56
2021/10/21 12:22:56;;;;;;;8.80;5.28;;;;;;;;;;5092413;28;20066;-56
2021/10/21 12:25:32;;;;;;;13.35;4.80;;;;;;;;;;5094431;28;20485;-57
2021/10/21 12:28:00;;;;;;;7.28;4.15;;;;;;;;;;5093583;28;20068;-56
2021/10/21 12:30:26;;;;;;;6.25;4.03;;;;;;;;;;5093586;28;20064;-55
2021/10/21 12:33:09;;;;;;;9.95;4.90;;;;;;;;;;5094615;28;20403;-55
2021/10/21 12:35:35;;;;;;;7.57;4.55;;;;;;;;;;5079763;28;20067;-57
2021/10/21 12:38:06;;;;;;;7.03;4.18;;;;;;;;;;5093482;28;20052;-56
2021/10/21 12:40:37;;;;;;;5.68;3.90;;;;;;;;;;5093069;28;20093;-55
2021/10/21 12:43:13;;;;;;;8.68;4.50;;;;;;;;;;5093619;28;20121;-57
2021/10/21 12:45:39;;;;;;;9.13;3.47;;;;;;;;;;5093475;28;20036;-57
2021/10/21 12:48:22;;;;;;;7.38;3.85;;;;;;;;;;5093187;28;20071;-56
2021/10/21 12:50:49;;;;;;;8.85;4.72;;;;;;;;;;5081055;28;20068;-56
2021/10/21 12:53:17;;;;;;;4.47;2.75;;;;;;;;;;5093515;28;20048;-56
2021/10/21 12:55:43;;;;;;;7.93;4.28;;;;;;;;;;5095081;28;20515;-56
2021/10/21 12:58:19;;;;;;;8.63;3.92;;;;;;;;;;5090081;28;20051;-55
2021/10/21 13:00:47;;;;;;;8.18;4.82;;;;;;;;;;5093010;28;20055;-58
2021/10/21 13:03:18;;;;;;;7.18;4.03;;;;;;;;;;5092974;28;20431;-60
2021/10/21 13:05:46;;;;;;;8.30;4.07;;;;;;;;;;5092754;28;20065;-61
2021/10/21 13:08:13;;;;;;;6.75;4.13;;;;;;;;;;5091816;28;20056;-66
2021/10/21 13:10:55;;;;;;;7.80;4.20;;;;;;;;;;5094654;28;20062;-59
2021/10/21 13:13:39;;;;;;;18.33;5.25;;;;;;;;;;5092149;28;20076;-59
2021/10/21 13:16:09;;;;;;;5.50;3.17;;;;;;;;;;5092673;28;20040;-59
2021/10/21 13:18:36;;;;;;;8.23;3.80;;;;;;;;;;5090245;28;20044;-60
2021/10/21 13:21:02;;;;;;;5.57;3.67;;;;;;;;;;5092615;28;20047;-59
2021/10/21 13:23:30;;;;;;;7.85;3.85;;;;;;;;;;5091322;28;20089;-59
2021/10/21 13:25:57;;;;;;;7.00;4.22;;;;;;;;;;5093652;28;20094;-60
2021/10/21 13:28:23;;;;;;;14.15;5.43;;;;;;;;;;5092940;28;20072;-62
2021/10/21 13:30:50;;;;;;;7.00;3.63;;;;;;;;;;5092369;28;20062;-60
2021/10/21 13:33:17;;;;;;;6.05;4.05;;;;;;;;;;5092157;28;20056;-60
2021/10/21 13:35:43;;;;;;;5.57;3.42;;;;;;;;;;5092340;28;20132;-60
2021/10/21 13:38:11;;;;;;;7.78;4.30;;;;;;;;;;5090312;28;20074;-60
2021/10/21 13:40:41;;;;;;;6.53;3.75;;;;;;;;;;5093971;28;20068;-61
2021/10/21 13:43:07;;;;;;;6.45;3.83;;;;;;;;;;5092384;28;20487;-60
2021/10/21 13:45:36;;;;;;;4.25;3.28;;;;;;;;;;5092109;28;20564;-60
2021/10/21 13:48:03;;;;;;;7.05;4.75;;;;;;;;;;5091432;28;20611;-59
2021/10/21 13:50:30;;;;;;;4.50;2.75;;;;;;;;;;5090738;28;20068;-62
2021/10/21 13:52:56;;;;;;;6.53;3.97;;;;;;;;;;5093379;28;20051;-61
2021/10/21 13:55:22;;;;;;;10.50;3.05;;;;;;;;;;5091848;28;20637;-61
2021/10/21 13:57:48;;;;;;;5.45;3.45;;;;;;;;;;5087412;28;20119;-59
2021/10/21 14:00:15;;;;;;;7.43;3.22;;;;;;;;;;5087501;28;20174;-60
2021/10/21 14:02:42;;;;;;;13.93;3.33;;;;;;;;;;5086300;28;20094;-61
2021/10/21 14:05:08;;;;;;;5.22;3.30;;;;;;;;;;5089686;28;20043;-60
2021/10/21 14:07:34;;;;;;;6.97;3.60;;;;;;;;;;5092213;28;20626;-60
2021/10/21 14:10:01;;;;;;;9.18;3.00;;;;;;;;;;5085648;28;20071;-60
2021/10/21 14:12:29;;;;;;;7.18;3.38;;;;;;;;;;5084355;28;20121;-60
2021/10/21 14:14:56;;;;;;;5.15;2.70;;;;;;;;;;5086144;28;20044;-60
2021/10/21 14:17:23;;;;;;;8.85;3.08;;;;;;;;;;5090743;28;20115;-60
2021/10/21 14:19:51;;;;;;;3.88;2.33;;;;;;;;;;5088736;28;20056;-60
2021/10/21 14:22:17;;;;;;;4.35;1.95;;;;;;;;;;5078375;28;20491;-58
2021/10/21 14:24:44;;;;;;;5.07;3.10;;;;;;;;;;5083212;28;20090;-59
2021/10/21 14:27:11;;;;;;;6.93;2.90;;;;;;;;;;5089064;28;20052;-59
2021/10/21 14:29:39;;;;;;;4.55;2.95;;;;;;;;;;5085217;28;20055;-60
2021/10/21 14:32:07;;;;;;;10.48;2.95;;;;;;;;;;5086578;28;20082;-61
2021/10/21 14:34:33;;;;;;;6.65;1.92;;;;;;;;;;5088437;28;20044;-59
2021/10/21 14:36:59;;;;;;;8.70;2.67;;;;;;;;;;5075311;28;20507;-59
2021/10/21 14:39:26;;;;;;;5.88;2.47;;;;;;;;;;5089045;28;20086;-59